sensor_id;sensor_type;location;lat;lon;timestamp;P1;durP1;ratioP1;P2;durP2;ratioP2
994;SDS011;486;48.726;8.964;2022-08-25T08:29:43;7.07;;;6.47;;
994;SDS011;486;48.726;8.964;2022-08-25T08:32:12;7.20;;;6.60;;
994;SDS011;486;48.726;8.964;2022-08-25T08:34:42;9.23;;;8.33;;
994;SDS011;486;48.726;8.964;2022-08-25T08:37:11;8.40;;;7.70;;
994;SDS011;486;48.726;8.964;2022-08-25T08:39:41;8.10;;;6.87;;
994;SDS011;486;48.726;8.964;2022-08-25T08:42:13;7.73;;;7.13;;
994;SDS011;486;48.726;8.964;2022-08-25T08:45:04;7.40;;;6.70;;
994;SDS011;486;48.726;8.964;2022-08-25T08:47:49;8.20;;;7.50;;
994;SDS011;486;48.726;8.964;2022-08-25T08:50:31;7.23;;;6.73;;
994;SDS011;486;48.726;8.964;2022-08-25T08:53:08;7.60;;;6.77;;
994;SDS011;486;48.726;8.964;2022-08-25T08:55:42;8.40;;;7.70;;
994;SDS011;486;48.726;8.964;2022-08-25T08:58:15;8.40;;;7.60;;
994;SDS011;486;48.726;8.964;2022-08-25T09:00:52;7.23;;;6.47;;
994;SDS011;486;48.726;8.964;2022-08-25T09:03:26;7.70;;;7.10;;
994;SDS011;486;48.726;8.964;2022-08-25T09:06:02;7.17;;;6.67;;
994;SDS011;486;48.726;8.964;2022-08-25T09:08:39;7.70;;;7.00;;
994;SDS011;486;48.726;8.964;2022-08-25T09:11:12;8.30;;;7.70;;
994;SDS011;486;48.726;8.964;2022-08-25T09:13:57;7.77;;;7.17;;
994;SDS011;486;48.726;8.964;2022-08-25T09:16:42;7.27;;;6.77;;
994;SDS011;486;48.726;8.964;2022-08-25T09:19:30;7.53;;;6.97;;
994;SDS011;486;48.726;8.964;2022-08-25T09:22:17;13.37;;;11.07;;
994;SDS011;486;48.726;8.964;2022-08-25T09:25:00;7.50;;;6.90;;
994;SDS011;486;48.726;8.964;2022-08-25T09:27:42;11.53;;;10.27;;
994;SDS011;486;48.726;8.964;2022-08-25T09:30:20;7.33;;;6.70;;
994;SDS011;486;48.726;8.964;2022-08-25T09:32:53;7.57;;;7.07;;
994;SDS011;486;48.726;8.964;2022-08-25T09:35:29;6.53;;;6.03;;
994;SDS011;486;48.726;8.964;2022-08-25T09:38:03;7.10;;;6.60;;
994;SDS011;486;48.726;8.964;2022-08-25T09:40:38;7.73;;;7.13;;
994;SDS011;486;48.726;8.964;2022-08-25T09:43:17;9.57;;;7.73;;
994;SDS011;486;48.726;8.964;2022-08-25T09:45:56;7.53;;;6.93;;
994;SDS011;486;48.726;8.964;2022-08-25T09:48:31;6.93;;;6.43;;
994;SDS011;486;48.726;8.964;2022-08-25T09:51:09;7.83;;;7.10;;
994;SDS011;486;48.726;8.964;2022-08-25T09:53:49;7.27;;;6.57;;
994;SDS011;486;48.726;8.964;2022-08-25T09:56:22;18.60;;;12.70;;
994;SDS011;486;48.726;8.964;2022-08-25T09:58:54;8.97;;;8.07;;
994;SDS011;486;48.726;8.964;2022-08-25T10:01:24;8.90;;;8.20;;
994;SDS011;486;48.726;8.964;2022-08-25T10:04:00;11.10;;;8.60;;
994;SDS011;486;48.726;8.964;2022-08-25T10:06:34;14.37;;;10.87;;
994;SDS011;486;48.726;8.964;2022-08-25T10:09:12;7.17;;;6.67;;
994;SDS011;486;48.726;8.964;2022-08-25T10:11:53;7.43;;;6.83;;
994;SDS011;486;48.726;8.964;2022-08-25T10:14:27;7.50;;;6.90;;
994;SDS011;486;48.726;8.964;2022-08-25T10:17:13;6.77;;;6.37;;
994;SDS011;486;48.726;8.964;2022-08-25T10:19:51;7.30;;;6.53;;
994;SDS011;486;48.726;8.964;2022-08-25T10:22:23;7.37;;;6.87;;
994;SDS011;486;48.726;8.964;2022-08-25T10:24:56;6.97;;;6.57;;
994;SDS011;486;48.726;8.964;2022-08-25T10:27:36;6.93;;;6.50;;
994;SDS011;486;48.726;8.964;2022-08-25T10:30:14;8.50;;;7.80;;
994;SDS011;486;48.726;8.964;2022-08-25T10:33:01;9.17;;;8.13;;
994;SDS011;486;48.726;8.964;2022-08-25T10:35:47;7.70;;;7.20;;
994;SDS011;486;48.726;8.964;2022-08-25T10:38:31;7.10;;;6.60;;
994;SDS011;486;48.726;8.964;2022-08-25T10:41:13;8.23;;;7.50;;
994;SDS011;486;48.726;8.964;2022-08-25T10:43:56;7.93;;;7.43;;
994;SDS011;486;48.726;8.964;2022-08-25T10:47:01;8.27;;;7.53;;
994;SDS011;486;48.726;8.964;2022-08-25T10:50:03;8.03;;;7.43;;
994;SDS011;486;48.726;8.964;2022-08-25T10:52:47;9.00;;;8.37;;
994;SDS011;486;48.726;8.964;2022-08-25T10:55:33;8.90;;;8.30;;
994;SDS011;486;48.726;8.964;2022-08-25T10:58:12;7.53;;;7.13;;
994;SDS011;486;48.726;8.964;2022-08-25T11:00:53;7.77;;;7.27;;
994;SDS011;486;48.726;8.964;2022-08-25T11:03:34;7.17;;;6.77;;
994;SDS011;486;48.726;8.964;2022-08-25T11:06:13;7.33;;;6.87;;
994;SDS011;486;48.726;8.964;2022-08-25T11:08:51;8.60;;;8.10;;
994;SDS011;486;48.726;8.964;2022-08-25T11:11:25;8.60;;;8.00;;
994;SDS011;486;48.726;8.964;2022-08-25T11:14:01;9.00;;;8.40;;
994;SDS011;486;48.726;8.964;2022-08-25T11:16:36;8.87;;;8.37;;
994;SDS011;486;48.726;8.964;2022-08-25T11:19:12;9.80;;;9.20;;
994;SDS011;486;48.726;8.964;2022-08-25T11:21:49;8.70;;;8.30;;
994;SDS011;486;48.726;8.964;2022-08-25T11:24:39;8.63;;;8.13;;
994;SDS011;486;48.726;8.964;2022-08-25T11:27:25;9.17;;;8.67;;
994;SDS011;486;48.726;8.964;2022-08-25T11:30:01;9.07;;;8.47;;
994;SDS011;486;48.726;8.964;2022-08-25T11:32:34;8.30;;;7.90;;
994;SDS011;486;48.726;8.964;2022-08-25T11:35:06;8.77;;;8.27;;
994;SDS011;486;48.726;8.964;2022-08-25T11:37:40;8.70;;;8.30;;
994;SDS011;486;48.726;8.964;2022-08-25T11:40:34;9.00;;;8.50;;
994;SDS011;486;48.726;8.964;2022-08-25T11:43:21;9.40;;;8.90;;
994;SDS011;486;48.726;8.964;2022-08-25T11:48:57;8.90;;;8.30;;
994;SDS011;486;48.726;8.964;2022-08-25T11:51:48;8.93;;;8.47;;
994;SDS011;486;48.726;8.964;2022-08-25T11:54:19;9.27;;;8.67;;
994;SDS011;486;48.726;8.964;2022-08-25T11:56:56;9.00;;;8.50;;
994;SDS011;486;48.726;8.964;2022-08-25T12:02:36;9.30;;;8.80;;
994;SDS011;486;48.726;8.964;2022-08-25T12:05:09;9.07;;;8.57;;
994;SDS011;486;48.726;8.964;2022-08-25T12:08:14;9.33;;;8.70;;
994;SDS011;486;48.726;8.964;2022-08-25T12:14:40;9.67;;;9.07;;
994;SDS011;486;48.726;8.964;2022-08-25T12:17:20;9.60;;;9.00;;
994;SDS011;486;48.726;8.964;2022-08-25T12:19:55;8.87;;;8.27;;
994;SDS011;486;48.726;8.964;2022-08-25T12:31:28;9.70;;;9.20;;
994;SDS011;486;48.726;8.964;2022-08-25T12:34:16;9.57;;;9.17;;
994;SDS011;486;48.726;8.964;2022-08-25T12:37:03;9.53;;;8.90;;
994;SDS011;486;48.726;8.964;2022-08-25T12:39:43;9.77;;;9.17;;
994;SDS011;486;48.726;8.964;2022-08-25T12:42:27;9.33;;;8.60;;
994;SDS011;486;48.726;8.964;2022-08-25T12:45:13;8.77;;;8.37;;
994;SDS011;486;48.726;8.964;2022-08-25T12:51:22;10.03;;;9.53;;
994;SDS011;486;48.726;8.964;2022-08-25T12:53:56;9.97;;;9.47;;
994;SDS011;486;48.726;8.964;2022-08-25T12:56:40;9.50;;;9.10;;
994;SDS011;486;48.726;8.964;2022-08-25T12:59:14;9.33;;;8.73;;
994;SDS011;486;48.726;8.964;2022-08-25T13:01:52;9.33;;;8.93;;
994;SDS011;486;48.726;8.964;2022-08-25T13:08:01;10.23;;;9.83;;
994;SDS011;486;48.726;8.964;2022-08-25T13:10:52;10.70;;;10.20;;
994;SDS011;486;48.726;8.964;2022-08-25T13:13:32;10.70;;;10.30;;
994;SDS011;486;48.726;8.964;2022-08-25T13:16:15;11.20;;;10.80;;
994;SDS011;486;48.726;8.964;2022-08-25T13:18:49;11.70;;;11.20;;
994;SDS011;486;48.726;8.964;2022-08-25T13:21:22;10.80;;;10.30;;
994;SDS011;486;48.726;8.964;2022-08-25T13:23:57;11.90;;;11.40;;
994;SDS011;486;48.726;8.964;2022-08-25T13:26:29;11.77;;;11.27;;
994;SDS011;486;48.726;8.964;2022-08-25T13:29:02;11.63;;;11.10;;
994;SDS011;486;48.726;8.964;2022-08-25T13:31:49;12.40;;;11.90;;
994;SDS011;486;48.726;8.964;2022-08-25T13:34:25;12.40;;;11.80;;
994;SDS011;486;48.726;8.964;2022-08-25T13:37:01;11.53;;;11.13;;
994;SDS011;486;48.726;8.964;2022-08-25T13:39:46;12.07;;;11.47;;
994;SDS011;486;48.726;8.964;2022-08-25T13:42:15;12.17;;;11.57;;
994;SDS011;486;48.726;8.964;2022-08-25T13:44:44;11.77;;;11.27;;
994;SDS011;486;48.726;8.964;2022-08-25T13:47:15;11.63;;;11.13;;
994;SDS011;486;48.726;8.964;2022-08-25T13:53:00;12.03;;;11.43;;
994;SDS011;486;48.726;8.964;2022-08-25T13:55:33;13.27;;;12.67;;
994;SDS011;486;48.726;8.964;2022-08-25T13:58:14;13.57;;;12.93;;
994;SDS011;486;48.726;8.964;2022-08-25T14:00:46;13.63;;;13.13;;
994;SDS011;486;48.726;8.964;2022-08-25T14:03:30;16.50;;;15.90;;
994;SDS011;486;48.726;8.964;2022-08-25T14:06:06;15.93;;;15.33;;
994;SDS011;486;48.726;8.964;2022-08-25T14:08:46;15.87;;;15.37;;
994;SDS011;486;48.726;8.964;2022-08-25T14:11:33;16.87;;;16.27;;
994;SDS011;486;48.726;8.964;2022-08-25T14:14:11;17.37;;;16.77;;
994;SDS011;486;48.726;8.964;2022-08-25T14:16:59;18.10;;;17.47;;
994;SDS011;486;48.726;8.964;2022-08-25T14:19:32;18.00;;;17.30;;
994;SDS011;486;48.726;8.964;2022-08-25T14:22:05;18.30;;;17.60;;
994;SDS011;486;48.726;8.964;2022-08-25T14:24:34;17.80;;;17.10;;
994;SDS011;486;48.726;8.964;2022-08-25T14:27:04;16.80;;;16.20;;
994;SDS011;486;48.726;8.964;2022-08-25T14:29:33;16.90;;;16.30;;
994;SDS011;486;48.726;8.964;2022-08-25T14:32:02;16.10;;;15.50;;
994;SDS011;486;48.726;8.964;2022-08-25T14:34:33;16.47;;;15.87;;
994;SDS011;486;48.726;8.964;2022-08-25T14:37:07;16.70;;;16.00;;
994;SDS011;486;48.726;8.964;2022-08-25T14:39:41;16.17;;;15.43;;
994;SDS011;486;48.726;8.964;2022-08-25T14:42:11;16.03;;;15.43;;
994;SDS011;486;48.726;8.964;2022-08-25T14:44:40;16.10;;;15.50;;
994;SDS011;486;48.726;8.964;2022-08-25T14:47:09;17.90;;;17.10;;
994;SDS011;486;48.726;8.964;2022-08-25T14:49:39;16.60;;;16.10;;
994;SDS011;486;48.726;8.964;2022-08-25T14:52:17;18.20;;;17.60;;
994;SDS011;486;48.726;8.964;2022-08-25T14:54:50;17.03;;;16.23;;
994;SDS011;486;48.726;8.964;2022-08-25T20:30:17;11.50;;;10.90;;
994;SDS011;486;48.726;8.964;2022-08-25T20:32:48;11.27;;;10.67;;
994;SDS011;486;48.726;8.964;2022-08-25T20:35:19;10.70;;;10.10;;
994;SDS011;486;48.726;8.964;2022-08-25T20:37:50;11.50;;;10.80;;
994;SDS011;486;48.726;8.964;2022-08-25T20:40:20;11.60;;;11.00;;
994;SDS011;486;48.726;8.964;2022-08-25T20:42:51;11.03;;;10.20;;
994;SDS011;486;48.726;8.964;2022-08-25T20:45:23;11.00;;;10.40;;
994;SDS011;486;48.726;8.964;2022-08-25T20:47:53;10.17;;;9.57;;
994;SDS011;486;48.726;8.964;2022-08-25T20:50:22;12.20;;;11.40;;
994;SDS011;486;48.726;8.964;2022-08-25T20:52:51;11.63;;;10.83;;
994;SDS011;486;48.726;8.964;2022-08-25T20:55:23;10.03;;;9.43;;
994;SDS011;486;48.726;8.964;2022-08-25T20:57:53;9.87;;;9.27;;
994;SDS011;486;48.726;8.964;2022-08-25T21:00:25;10.70;;;9.90;;
994;SDS011;486;48.726;8.964;2022-08-25T21:02:54;10.33;;;9.70;;
994;SDS011;486;48.726;8.964;2022-08-25T21:05:23;9.20;;;8.40;;
994;SDS011;486;48.726;8.964;2022-08-25T21:07:52;10.70;;;10.00;;
994;SDS011;486;48.726;8.964;2022-08-25T21:10:21;9.40;;;8.70;;
994;SDS011;486;48.726;8.964;2022-08-25T21:12:50;9.60;;;9.00;;
994;SDS011;486;48.726;8.964;2022-08-25T21:15:19;10.10;;;9.50;;
994;SDS011;486;48.726;8.964;2022-08-25T21:17:52;11.10;;;10.30;;
994;SDS011;486;48.726;8.964;2022-08-25T21:20:22;9.70;;;9.00;;
994;SDS011;486;48.726;8.964;2022-08-25T21:22:52;15.33;;;10.17;;
994;SDS011;486;48.726;8.964;2022-08-25T21:25:21;9.30;;;8.50;;
994;SDS011;486;48.726;8.964;2022-08-25T21:27:50;16.77;;;11.13;;
994;SDS011;486;48.726;8.964;2022-08-25T21:30:19;11.10;;;10.30;;
994;SDS011;486;48.726;8.964;2022-08-25T21:32:48;11.17;;;10.37;;
994;SDS011;486;48.726;8.964;2022-08-25T21:35:20;10.77;;;9.97;;
994;SDS011;486;48.726;8.964;2022-08-25T21:37:51;10.27;;;9.57;;
994;SDS011;486;48.726;8.964;2022-08-25T21:40:20;10.30;;;9.53;;
994;SDS011;486;48.726;8.964;2022-08-25T21:42:49;9.83;;;9.13;;
994;SDS011;486;48.726;8.964;2022-08-25T21:45:19;10.60;;;9.80;;
994;SDS011;486;48.726;8.964;2022-08-25T21:47:48;9.70;;;8.90;;
994;SDS011;486;48.726;8.964;2022-08-25T21:50:20;10.60;;;9.80;;
994;SDS011;486;48.726;8.964;2022-08-25T21:52:49;9.57;;;8.87;;
994;SDS011;486;48.726;8.964;2022-08-25T21:55:18;9.70;;;9.00;;
994;SDS011;486;48.726;8.964;2022-08-25T21:57:47;10.23;;;9.53;;
994;SDS011;486;48.726;8.964;2022-08-25T22:00:18;9.63;;;8.73;;
994;SDS011;486;48.726;8.964;2022-08-25T22:02:48;9.40;;;8.73;;
994;SDS011;486;48.726;8.964;2022-08-25T22:05:20;8.50;;;8.00;;
994;SDS011;486;48.726;8.964;2022-08-25T22:07:50;9.40;;;8.70;;
994;SDS011;486;48.726;8.964;2022-08-25T22:10:20;9.83;;;9.10;;
994;SDS011;486;48.726;8.964;2022-08-25T22:12:49;9.37;;;8.67;;
994;SDS011;486;48.726;8.964;2022-08-25T22:15:18;8.57;;;7.93;;
994;SDS011;486;48.726;8.964;2022-08-25T22:17:47;9.50;;;8.80;;
994;SDS011;486;48.726;8.964;2022-08-25T22:20:19;8.70;;;8.00;;
994;SDS011;486;48.726;8.964;2022-08-25T22:22:49;9.87;;;9.17;;
994;SDS011;486;48.726;8.964;2022-08-25T22:25:18;9.90;;;8.97;;
994;SDS011;486;48.726;8.964;2022-08-25T22:27:47;9.70;;;8.90;;
994;SDS011;486;48.726;8.964;2022-08-25T22:30:17;9.80;;;9.00;;
994;SDS011;486;48.726;8.964;2022-08-25T22:32:46;12.03;;;9.70;;
994;SDS011;486;48.726;8.964;2022-08-25T22:35:15;11.20;;;10.20;;
994;SDS011;486;48.726;8.964;2022-08-25T22:37:47;10.27;;;9.47;;
994;SDS011;486;48.726;8.964;2022-08-25T22:40:16;10.60;;;9.50;;
994;SDS011;486;48.726;8.964;2022-08-25T22:42:45;10.53;;;9.70;;
994;SDS011;486;48.726;8.964;2022-08-25T22:45:15;10.07;;;9.43;;
994;SDS011;486;48.726;8.964;2022-08-25T22:47:44;10.53;;;9.73;;
994;SDS011;486;48.726;8.964;2022-08-25T22:50:13;10.57;;;9.53;;
994;SDS011;486;48.726;8.964;2022-08-25T22:52:45;9.87;;;9.03;;
994;SDS011;486;48.726;8.964;2022-08-25T22:55:15;9.63;;;8.90;;
994;SDS011;486;48.726;8.964;2022-08-25T22:57:44;10.17;;;9.27;;
994;SDS011;486;48.726;8.964;2022-08-25T23:00:14;9.80;;;9.00;;
994;SDS011;486;48.726;8.964;2022-08-25T23:02:44;9.53;;;8.57;;
994;SDS011;486;48.726;8.964;2022-08-25T23:05:17;10.30;;;9.40;;
994;SDS011;486;48.726;8.964;2022-08-25T23:07:49;9.20;;;8.50;;
994;SDS011;486;48.726;8.964;2022-08-25T23:10:18;10.17;;;9.37;;
994;SDS011;486;48.726;8.964;2022-08-25T23:12:49;8.90;;;8.20;;
994;SDS011;486;48.726;8.964;2022-08-25T23:15:18;9.50;;;8.80;;
994;SDS011;486;48.726;8.964;2022-08-25T23:17:47;10.30;;;9.43;;
994;SDS011;486;48.726;8.964;2022-08-25T23:20:17;9.00;;;8.30;;
994;SDS011;486;48.726;8.964;2022-08-25T23:23:01;9.50;;;8.70;;
994;SDS011;486;48.726;8.964;2022-08-25T23:25:31;10.60;;;9.80;;
994;SDS011;486;48.726;8.964;2022-08-25T23:28:00;9.80;;;9.10;;
994;SDS011;486;48.726;8.964;2022-08-25T23:30:29;10.20;;;9.40;;
994;SDS011;486;48.726;8.964;2022-08-25T23:32:58;9.60;;;8.80;;
994;SDS011;486;48.726;8.964;2022-08-25T23:35:28;10.50;;;9.70;;
994;SDS011;486;48.726;8.964;2022-08-25T23:37:57;9.90;;;9.10;;
994;SDS011;486;48.726;8.964;2022-08-25T23:40:28;9.03;;;8.33;;
994;SDS011;486;48.726;8.964;2022-08-25T23:42:58;10.63;;;9.63;;
994;SDS011;486;48.726;8.964;2022-08-25T23:45:27;9.60;;;8.70;;
994;SDS011;486;48.726;8.964;2022-08-25T23:47:56;9.30;;;8.60;;
994;SDS011;486;48.726;8.964;2022-08-25T23:50:25;10.43;;;9.63;;
994;SDS011;486;48.726;8.964;2022-08-25T23:52:54;9.83;;;9.07;;
994;SDS011;486;48.726;8.964;2022-08-25T23:55:23;9.87;;;8.93;;
994;SDS011;486;48.726;8.964;2022-08-25T23:57:55;11.37;;;10.33;;
